Time;durP1;ratioP1;P1;durP2;ratioP2;P2;SDS_P1;SDS_P2;PMS_P1;PMS_P2;Temp;Humidity;BMP_temperature;BMP_pressure;BME280_temperature;BME280_humidity;BME280_pressure;Samples;Min_cycle;Max_cycle;Signal;HPM_P1;HPM_P2
2023/05/15 00:01:23;;;;;;;3.33;1.80;;;;;;;14.53;93.00;99108.63;5089390;28;20198;-73
2023/05/15 00:03:50;;;;;;;1.90;1.50;;;;;;;14.52;93.36;99096.72;5089471;28;20219;-74
2023/05/15 00:06:18;;;;;;;2.10;1.70;;;;;;;14.53;93.18;99100.91;5089282;28;20208;-74
2023/05/15 00:08:44;;;;;;;1.83;1.37;;;;;;;14.46;93.06;99087.75;5089299;28;20254;-72
2023/05/15 00:11:11;;;;;;;2.40;1.80;;;;;;;14.34;93.17;99077.69;5089240;28;20226;-72
2023/05/15 00:13:38;;;;;;;2.50;1.80;;;;;;;14.13;93.89;99076.06;5089378;28;20237;-74
2023/05/15 00:16:07;;;;;;;2.07;1.77;;;;;;;14.08;95.31;99070.53;5089221;28;20205;-73
2023/05/15 00:18:34;;;;;;;2.40;1.60;;;;;;;14.00;95.26;99075.53;5088948;28;20223;-74
2023/05/15 00:21:01;;;;;;;2.90;1.77;;;;;;;13.95;96.69;99069.97;5089165;28;20272;-72
2023/05/15 00:23:27;;;;;;;3.57;1.80;;;;;;;13.89;96.71;99068.72;5091259;28;20231;-72
2023/05/15 00:25:54;;;;;;;2.23;1.60;;;;;;;13.84;97.69;99062.34;5092653;28;20654;-72
2023/05/15 00:28:21;;;;;;;1.87;1.57;;;;;;;13.79;98.03;99058.44;5092558;28;20218;-72
2023/05/15 00:30:48;;;;;;;1.53;1.43;;;;;;;13.75;98.73;99051.91;5092643;28;20233;-72
2023/05/15 00:33:16;;;;;;;4.83;1.97;;;;;;;13.60;99.27;99045.53;5092767;28;20371;-72
2023/05/15 00:35:43;;;;;;;3.43;2.00;;;;;;;13.43;100.00;99046.16;5092246;28;20205;-72
2023/05/15 00:38:10;;;;;;;3.20;2.07;;;;;;;13.40;100.00;99033.56;5092594;28;20256;-72
2023/05/15 00:40:38;;;;;;;3.70;1.97;;;;;;;13.33;100.00;99026.41;5092421;28;20201;-74
2023/05/15 00:43:08;;;;;;;5.83;1.87;;;;;;;13.41;100.00;99048.03;5092430;28;20702;-74
2023/05/15 00:45:36;;;;;;;2.40;1.90;;;;;;;13.40;100.00;99064.41;5092374;28;20231;-72
2023/05/15 00:48:04;;;;;;;4.27;1.87;;;;;;;13.50;100.00;99072.97;5092563;28;20224;-72
2023/05/15 00:50:33;;;;;;;3.63;1.80;;;;;;;13.57;100.00;99089.47;5092703;28;20320;-72
2023/05/15 00:53:00;;;;;;;2.20;1.57;;;;;;;13.68;100.00;99091.13;5092281;28;20249;-72
2023/05/15 00:55:29;;;;;;;3.67;2.17;;;;;;;13.65;100.00;99094.78;5092223;28;20204;-74
2023/05/15 00:57:57;;;;;;;2.40;2.03;;;;;;;13.70;100.00;99090.06;5092219;28;20219;-72
2023/05/15 01:00:25;;;;;;;3.33;1.93;;;;;;;13.69;100.00;99093.56;5092305;28;20212;-72
2023/05/15 01:02:52;;;;;;;3.07;1.93;;;;;;;13.70;100.00;99090.06;5091942;28;20221;-74
2023/05/15 01:05:19;;;;;;;2.27;1.90;;;;;;;13.59;100.00;99098.69;5092497;28;20194;-74
2023/05/15 01:07:55;;;;;;;2.23;1.80;;;;;;;13.45;100.00;99109.28;5092011;28;20197;-74
2023/05/15 01:10:23;;;;;;;2.27;1.70;;;;;;;13.39;100.00;99119.28;5091759;28;20229;-72
2023/05/15 01:12:54;;;;;;;2.13;1.90;;;;;;;13.31;100.00;99110.44;5091941;28;20680;-74
2023/05/15 01:15:23;;;;;;;2.00;1.70;;;;;;;13.45;100.00;99111.88;5092107;28;20209;-72
2023/05/15 01:17:51;;;;;;;2.53;1.57;;;;;;;13.56;100.00;99128.94;5091980;28;20205;-72
2023/05/15 01:20:18;;;;;;;1.50;1.40;;;;;;;13.56;100.00;99123.81;5092068;28;20233;-72
2023/05/15 01:22:54;;;;;;;2.63;2.07;;;;;;;13.44;100.00;99123.09;5091776;28;20674;-72
2023/05/15 01:25:56;;;;;;;3.63;1.90;;;;;;;13.54;100.00;99111.09;5091967;28;20242;-72
2023/05/15 01:28:30;;;;;;;3.07;2.00;;;;;;;13.66;100.00;99104.09;5066704;28;20388;-72
2023/05/15 01:31:06;;;;;;;2.17;1.80;;;;;;;13.71;100.00;99076.25;5091650;28;20662;-74
2023/05/15 01:33:37;;;;;;;2.50;2.00;;;;;;;13.74;100.00;99063.16;5091546;28;20221;-74
2023/05/15 01:36:13;;;;;;;3.87;2.20;;;;;;;13.60;100.00;99060.94;5091438;28;20218;-72
2023/05/15 01:38:44;;;;;;;3.40;2.20;;;;;;;13.72;100.00;99067.59;5091380;28;20464;-72
2023/05/15 01:41:21;;;;;;;4.50;2.70;;;;;;;13.73;100.00;99058.97;5091599;28;20655;-74
2023/05/15 01:43:56;;;;;;;4.67;2.03;;;;;;;13.67;100.00;99036.38;5091446;28;20696;-74
2023/05/15 01:46:26;;;;;;;3.67;2.23;;;;;;;13.64;100.00;99022.97;5091226;28;20208;-72
2023/05/15 01:48:55;;;;;;;3.00;2.17;;;;;;;13.56;100.00;99021.88;5091056;28;20243;-74
2023/05/15 01:51:23;;;;;;;4.73;1.90;;;;;;;13.49;100.00;99014.81;5091042;28;20236;-72
2023/05/15 01:53:51;;;;;;;2.50;1.67;;;;;;;13.54;100.00;99010.09;5091023;28;20237;-71
2023/05/15 01:56:20;;;;;;;2.17;1.70;;;;;;;13.39;100.00;99003.72;5091007;28;20217;-74
2023/05/15 01:58:48;;;;;;;2.83;1.80;;;;;;;13.31;100.00;99023.13;5091037;28;20231;-74
2023/05/15 02:01:17;;;;;;;3.37;1.70;;;;;;;13.26;100.00;99030.41;5091177;28;20685;-72
2023/05/15 02:03:45;;;;;;;2.33;1.80;;;;;;;13.27;100.00;99026.91;5090723;28;20212;-74
2023/05/15 02:06:13;;;;;;;2.70;1.97;;;;;;;13.29;100.00;99032.75;5090953;28;20645;-74
2023/05/15 02:08:41;;;;;;;1.90;1.60;;;;;;;13.30;100.00;99026.66;5090837;28;20614;-71
2023/05/15 02:11:09;;;;;;;2.57;1.80;;;;;;;13.21;100.00;99027.41;5090321;28;20234;-71
2023/05/15 02:13:37;;;;;;;2.30;1.90;;;;;;;13.22;100.00;99023.06;5090944;28;20587;-73
2023/05/15 02:16:04;;;;;;;3.60;1.80;;;;;;;13.14;100.00;99021.94;5090748;28;20207;-71
2023/05/15 02:18:32;;;;;;;2.30;1.70;;;;;;;13.05;100.00;99016.78;5090481;28;20218;-74
2023/05/15 02:21:01;;;;;;;2.63;1.70;;;;;;;13.07;100.00;99030.31;5090734;28;20202;-72
2023/05/15 02:23:28;;;;;;;2.90;1.90;;;;;;;13.04;100.00;99025.44;5090457;28;20229;-71
2023/05/15 02:26:20;;;;;;;3.67;1.93;;;;;;;13.12;100.00;99028.19;5090673;28;20582;-74
2023/05/15 02:28:51;;;;;;;2.97;2.00;;;;;;;13.12;100.00;99028.19;5090465;28;20242;-74
2023/05/15 02:31:27;;;;;;;2.63;1.67;;;;;;;12.98;100.00;99026.75;5090322;28;20239;-74
2023/05/15 02:34:03;;;;;;;5.70;2.17;;;;;;;12.97;100.00;99019.16;5090554;28;20483;-72
2023/05/15 02:36:33;;;;;;;4.63;2.43;;;;;;;12.89;100.00;99002.69;5090271;28;20257;-73
2023/05/15 02:39:01;;;;;;;3.50;2.07;;;;;;;12.93;100.00;99007.53;5090595;28;20242;-74
2023/05/15 02:41:31;;;;;;;4.17;2.40;;;;;;;12.81;100.00;99001.69;5090525;28;20199;-74
2023/05/15 02:43:59;;;;;;;3.57;2.30;;;;;;;12.78;100.00;99007.88;5090693;28;20701;-74
2023/05/15 02:46:27;;;;;;;2.70;1.93;;;;;;;12.66;100.00;99008.91;5089688;28;20195;-72
2023/05/15 02:48:54;;;;;;;3.03;2.00;;;;;;;12.60;100.00;99017.09;5090428;28;20229;-74
2023/05/15 02:51:23;;;;;;;2.10;1.67;;;;;;;12.56;100.00;99031.09;5090162;28;20804;-72
2023/05/15 02:53:50;;;;;;;7.00;2.37;;;;;;;12.56;100.00;99011.38;5090383;28;20225;-74
2023/05/15 02:56:16;;;;;;;3.30;1.87;;;;;;;12.48;100.00;99012.94;5089896;28;20201;-74
2023/05/15 02:58:43;;;;;;;4.30;2.17;;;;;;;12.49;100.00;99019.72;5089984;28;20249;-74
2023/05/15 03:01:10;;;;;;;3.17;2.27;;;;;;;12.43;100.00;99016.69;5089894;28;20198;-71
2023/05/15 03:03:37;;;;;;;2.63;2.00;;;;;;;12.43;100.00;99019.25;5089812;28;20226;-74
2023/05/15 03:06:04;;;;;;;2.67;2.20;;;;;;;12.44;100.00;99005.50;5089759;28;20693;-73
2023/05/15 03:08:32;;;;;;;2.60;1.87;;;;;;;12.37;100.00;99001.81;5089794;28;20217;-71
2023/05/15 03:10:59;;;;;;;3.33;1.80;;;;;;;12.38;100.00;99002.63;5089536;28;20229;-74
2023/05/15 03:13:25;;;;;;;2.17;1.93;;;;;;;12.29;100.00;99014.44;5089713;28;20717;-72
2023/05/15 03:15:52;;;;;;;4.47;1.97;;;;;;;12.24;100.00;99011.41;5089836;28;20206;-71
2023/05/15 03:18:19;;;;;;;2.40;1.87;;;;;;;12.34;100.00;99020.00;5090095;28;20585;-73
2023/05/15 03:20:48;;;;;;;2.47;1.83;;;;;;;12.37;100.00;99022.31;5090205;28;20197;-73
2023/05/15 03:23:15;;;;;;;2.10;1.67;;;;;;;12.34;100.00;99008.94;5089610;28;20226;-71
2023/05/15 03:25:43;;;;;;;2.97;1.93;;;;;;;12.35;100.00;99019.06;5089854;28;20202;-71
2023/05/15 03:28:10;;;;;;;4.83;2.30;;;;;;;12.34;100.00;99016.66;5089526;28;20214;-71
2023/05/15 03:30:37;;;;;;;2.67;1.70;;;;;;;12.38;100.00;99018.81;5089476;28;20194;-74
2023/05/15 03:33:04;;;;;;;2.97;1.90;;;;;;;12.41;100.00;99018.56;5089810;28;20242;-72
2023/05/15 03:35:31;;;;;;;3.10;1.60;;;;;;;12.44;100.00;99023.44;5089627;28;20194;-73
2023/05/15 03:37:58;;;;;;;2.53;1.80;;;;;;;12.58;100.00;99034.34;5089500;28;20210;-73
2023/05/15 03:40:25;;;;;;;3.20;2.00;;;;;;;12.57;100.00;99035.28;5089475;28;20593;-74
2023/05/15 03:42:53;;;;;;;3.07;2.03;;;;;;;12.62;100.00;99028.03;5089348;28;20217;-73
2023/05/15 03:45:20;;;;;;;4.97;1.77;;;;;;;12.65;100.00;99032.91;5089628;28;20199;-74
2023/05/15 03:47:47;;;;;;;11.83;2.23;;;;;;;12.65;100.00;99035.47;5089639;28;20598;-74
2023/05/15 03:50:14;;;;;;;6.00;1.97;;;;;;;12.69;100.00;99041.97;5089622;28;20191;-74
2023/05/15 03:52:40;;;;;;;3.10;2.17;;;;;;;12.68;100.00;99045.47;5089164;28;20238;-72
2023/05/15 03:55:08;;;;;;;2.97;1.70;;;;;;;12.83;100.00;99044.22;5089364;28;20207;-73
2023/05/15 03:57:35;;;;;;;3.17;1.93;;;;;;;12.90;100.00;99037.66;5089784;28;20575;-71
2023/05/15 04:00:08;;;;;;;3.13;2.17;;;;;;;12.94;100.00;99045.09;5093626;28;20689;-73
2023/05/15 04:02:35;;;;;;;2.53;2.07;;;;;;;12.96;100.00;99038.91;5093337;28;20224;-72
2023/05/15 04:05:02;;;;;;;4.10;2.10;;;;;;;13.04;100.00;99028.00;5093368;28;20199;-74
2023/05/15 04:07:29;;;;;;;3.27;2.60;;;;;;;13.12;100.00;99023.03;5093120;28;20251;-72
2023/05/15 04:10:00;;;;;;;3.67;2.27;;;;;;;13.18;100.00;99014.81;5093178;28;20227;-72
2023/05/15 04:12:28;;;;;;;3.20;2.20;;;;;;;13.19;100.00;99018.19;5093057;28;20683;-74
2023/05/15 04:14:55;;;;;;;4.77;2.50;;;;;;;13.21;100.00;99016.31;5093114;28;20670;-74
2023/05/15 04:17:23;;;;;;;4.33;2.30;;;;;;;13.18;100.00;99014.81;5093096;28;20196;-71
2023/05/15 04:19:50;;;;;;;3.17;2.10;;;;;;;13.18;100.00;99006.28;5093205;28;20230;-72
2023/05/15 04:22:17;;;;;;;2.90;2.20;;;;;;;13.21;100.00;99009.44;5093108;28;20722;-73
2023/05/15 04:24:44;;;;;;;5.13;2.13;;;;;;;13.11;100.00;99014.50;5093000;28;20224;-74
2023/05/15 04:27:11;;;;;;;3.77;2.70;;;;;;;13.14;100.00;99005.75;5092839;28;20295;-74
2023/05/15 04:29:37;;;;;;;3.40;2.20;;;;;;;13.16;100.00;99008.19;5092889;28;20228;-72
2023/05/15 04:32:04;;;;;;;3.23;2.10;;;;;;;13.14;100.00;98993.72;5092482;28;20714;-74
2023/05/15 04:34:33;;;;;;;6.47;2.20;;;;;;;13.15;100.00;98999.69;5092692;28;20233;-72
2023/05/15 04:37:00;;;;;;;3.77;2.20;;;;;;;13.15;100.00;99009.94;5093174;28;20207;-74
2023/05/15 04:39:26;;;;;;;4.90;2.23;;;;;;;12.97;100.00;99006.34;5092575;28;20221;-75
2023/05/15 04:41:53;;;;;;;2.90;2.37;;;;;;;13.08;100.00;99016.53;5092446;28;20194;-72
2023/05/15 04:44:20;;;;;;;3.47;2.27;;;;;;;13.16;100.00;99016.69;5092701;28;20706;-72
2023/05/15 04:46:47;;;;;;;6.80;2.20;;;;;;;13.27;100.00;99015.84;5092564;28;20203;-74
2023/05/15 04:49:14;;;;;;;5.17;2.90;;;;;;;13.30;100.00;99007.88;5092463;28;20219;-72
2023/05/15 04:51:42;;;;;;;4.33;2.77;;;;;;;13.15;100.00;99038.19;5092022;28;20725;-72
2023/05/15 04:54:09;;;;;;;4.30;2.17;;;;;;;13.27;100.00;99046.66;5092497;28;20223;-74
2023/05/15 04:56:36;;;;;;;4.33;2.70;;;;;;;13.42;100.00;99039.41;5091955;28;20207;-72
2023/05/15 04:59:02;;;;;;;5.77;3.53;;;;;;;13.53;100.00;99045.25;5092491;28;20280;-75
2023/05/15 05:01:29;;;;;;;5.93;2.60;;;;;;;13.64;100.00;99043.50;5092063;28;20211;-74
2023/05/15 05:03:56;;;;;;;3.30;2.57;;;;;;;13.74;100.00;99049.50;5092089;28;20220;-74
2023/05/15 05:06:23;;;;;;;3.30;2.40;;;;;;;13.78;100.00;99050.84;5092224;28;20689;-72
2023/05/15 05:08:51;;;;;;;2.93;2.43;;;;;;;13.84;100.00;99044.38;5091811;28;20595;-75
2023/05/15 05:11:18;;;;;;;4.57;3.10;;;;;;;13.88;100.00;99045.75;5091798;28;20240;-74
2023/05/15 05:13:45;;;;;;;7.20;3.67;;;;;;;13.93;100.00;99049.53;5091721;28;20230;-74
2023/05/15 05:16:11;;;;;;;4.67;2.47;;;;;;;13.95;100.00;99057.09;5091494;28;20208;-74
2023/05/15 05:18:38;;;;;;;9.90;4.70;;;;;;;13.99;100.00;99054.16;5091972;28;20222;-72
2023/05/15 05:21:05;;;;;;;10.23;4.50;;;;;;;13.92;100.00;99041.94;5091777;28;20242;-75
2023/05/15 05:23:32;;;;;;;9.27;4.43;;;;;;;13.91;100.00;99041.16;5091594;28;20227;-71
2023/05/15 05:26:01;;;;;;;5.80;3.20;;;;;;;13.85;100.00;99036.53;5091561;28;20197;-71
2023/05/15 05:28:28;;;;;;;5.27;3.50;;;;;;;13.81;100.00;99041.09;5091695;28;20273;-72
2023/05/15 05:30:54;;;;;;;9.17;5.23;;;;;;;13.88;100.00;99032.91;5091528;28;20228;-74
2023/05/15 05:33:21;;;;;;;16.63;6.97;;;;;;;14.09;100.00;99025.88;5091345;28;20240;-72
2023/05/15 05:35:48;;;;;;;6.77;3.20;;;;;;;14.26;100.00;99034.69;5091748;28;20209;-74
2023/05/15 05:38:15;;;;;;;3.60;2.50;;;;;;;14.32;100.00;99034.13;5091527;28;20227;-74
2023/05/15 05:40:41;;;;;;;5.73;3.00;;;;;;;14.49;100.00;99041.16;5091093;28;20551;-74
2023/05/15 05:43:10;;;;;;;5.57;2.90;;;;;;;14.61;100.00;99041.84;5091229;28;20218;-74
2023/05/15 05:45:36;;;;;;;3.40;2.40;;;;;;;14.80;100.00;99053.06;5091099;28;20201;-74
2023/05/15 05:48:03;;;;;;;4.87;2.30;;;;;;;15.06;100.00;99043.78;5091350;28;20234;-71
2023/05/15 05:50:30;;;;;;;4.70;3.07;;;;;;;15.20;100.00;99041.72;5091075;28;20217;-74
2023/05/15 05:52:57;;;;;;;3.13;2.23;;;;;;;15.40;100.00;99051.78;5091173;28;20234;-72
2023/05/15 05:55:24;;;;;;;4.17;2.57;;;;;;;15.44;100.00;99072.91;5091381;28;20194;-75
2023/05/15 05:57:51;;;;;;;5.87;2.50;;;;;;;15.65;100.00;99079.59;5090861;28;20199;-72
2023/05/15 06:00:20;;;;;;;4.37;2.50;;;;;;;15.79;100.00;99079.16;5091021;28;20246;-71
2023/05/15 06:02:47;;;;;;;3.10;2.30;;;;;;;15.73;100.00;99077.97;5090987;28;20222;-72
2023/05/15 06:05:14;;;;;;;2.90;2.23;;;;;;;15.80;100.00;99067.91;5091046;28;20307;-75
2023/05/15 06:07:41;;;;;;;2.27;1.80;;;;;;;15.95;100.00;99061.28;5090595;28;20195;-75
2023/05/15 06:10:09;;;;;;;3.50;2.30;;;;;;;15.92;100.00;99061.59;5090743;28;20276;-73
2023/05/15 06:12:36;;;;;;;4.83;2.57;;;;;;;16.15;100.00;99061.97;5090810;28;20631;-72
2023/05/15 06:15:03;;;;;;;3.03;2.27;;;;;;;16.18;100.00;99064.25;5090735;28;20198;-75
2023/05/15 06:17:31;;;;;;;3.67;2.20;;;;;;;16.21;98.87;99063.97;5090610;28;20670;-75
2023/05/15 06:19:57;;;;;;;2.73;2.03;;;;;;;16.27;98.97;99073.69;5090025;28;20214;-72
2023/05/15 06:22:24;;;;;;;4.13;2.30;;;;;;;16.30;98.27;99067.44;5090512;28;20205;-72
2023/05/15 06:24:51;;;;;;;4.30;2.50;;;;;;;16.38;100.00;99071.84;5090686;28;20597;-72
2023/05/15 06:27:18;;;;;;;4.63;2.30;;;;;;;16.46;99.35;99064.16;5090721;28;20205;-72
2023/05/15 06:29:45;;;;;;;3.37;2.50;;;;;;;16.57;96.51;99055.38;5090482;28;20232;-75
2023/05/15 06:32:11;;;;;;;3.13;2.27;;;;;;;16.74;97.42;99046.78;5090536;28;20230;-72
2023/05/15 06:34:40;;;;;;;3.07;2.20;;;;;;;17.05;94.75;99043.78;5090393;28;20249;-75
2023/05/15 06:37:06;;;;;;;3.03;2.13;;;;;;;17.05;94.34;99049.75;5090367;28;20209;-76
2023/05/15 06:39:33;;;;;;;2.07;1.83;;;;;;;16.82;93.57;99049.47;5090481;28;20232;-71
2023/05/15 06:42:00;;;;;;;3.47;2.20;;;;;;;16.77;94.98;99050.88;5090486;28;20674;-72
2023/05/15 06:44:27;;;;;;;3.10;2.33;;;;;;;16.67;94.69;99050.94;5090307;28;20238;-76
2023/05/15 06:46:54;;;;;;;4.17;2.57;;;;;;;16.80;93.39;99046.22;5090354;28;20244;-76
2023/05/15 06:49:20;;;;;;;2.50;2.10;;;;;;;16.74;93.38;99041.63;5090100;28;20309;-72
2023/05/15 06:51:49;;;;;;;2.83;2.20;;;;;;;16.98;93.86;99036.63;5089956;28;20203;-72
2023/05/15 06:54:15;;;;;;;3.97;2.33;;;;;;;16.83;93.26;99040.75;5090314;28;20219;-72
2023/05/15 06:56:42;;;;;;;5.17;2.23;;;;;;;17.04;95.75;99037.78;5089996;28;20210;-75
2023/05/15 06:59:09;;;;;;;2.90;2.23;;;;;;;17.17;92.41;99037.41;5090180;28;20315;-72
2023/05/15 07:01:37;;;;;;;4.03;2.20;;;;;;;17.23;93.97;99031.59;5089784;28;20207;-72
2023/05/15 07:04:04;;;;;;;3.67;2.10;;;;;;;17.43;92.02;99047.69;5090110;28;20220;-76
2023/05/15 07:06:31;;;;;;;3.27;2.30;;;;;;;17.56;91.18;99042.06;5089860;28;20658;-75
2023/05/15 07:08:59;;;;;;;3.20;2.20;;;;;;;17.63;91.56;99043.06;5089951;28;20281;-72
2023/05/15 07:11:27;;;;;;;2.87;2.00;;;;;;;17.77;91.65;99039.88;5089719;28;20207;-72
2023/05/15 07:13:54;;;;;;;3.57;2.20;;;;;;;17.68;91.51;99043.38;5089607;28;20762;-75
2023/05/15 07:16:20;;;;;;;2.83;2.27;;;;;;;17.61;91.16;99034.66;5089473;28;20204;-75
2023/05/15 07:18:47;;;;;;;4.37;2.40;;;;;;;17.56;91.11;99031.72;5089808;28;20227;-72
2023/05/15 07:21:14;;;;;;;2.70;2.27;;;;;;;17.30;92.91;99037.75;5089839;28;20712;-75
2023/05/15 07:23:41;;;;;;;3.83;2.23;;;;;;;17.40;91.59;99032.50;5090039;28;20583;-72
2023/05/15 07:26:09;;;;;;;2.50;1.90;;;;;;;17.39;92.87;99034.28;5089480;28;20213;-72
2023/05/15 07:28:36;;;;;;;2.53;2.20;;;;;;;17.65;92.09;99025.59;5089819;28;21103;-72
2023/05/15 07:31:03;;;;;;;3.93;2.53;;;;;;;17.56;91.10;99026.56;5089739;28;20218;-75
2023/05/15 07:33:30;;;;;;;3.07;2.17;;;;;;;17.66;91.69;99016.91;5093836;28;20234;-71
2023/05/15 07:35:57;;;;;;;3.43;2.37;;;;;;;17.86;89.62;99013.09;5093741;28;20615;-72
2023/05/15 07:38:24;;;;;;;3.50;2.30;;;;;;;18.12;90.69;98995.81;5093920;28;20223;-72
2023/05/15 07:40:50;;;;;;;2.77;2.10;;;;;;;18.59;88.37;98997.72;5093599;28;20576;-76
2023/05/15 07:43:18;;;;;;;2.53;1.80;;;;;;;18.87;86.66;99000.75;5093566;28;20225;-75
2023/05/15 07:45:46;;;;;;;5.00;2.33;;;;;;;18.96;85.58;98984.22;5093806;28;20228;-75
2023/05/15 07:48:16;;;;;;;2.70;2.23;;;;;;;19.05;84.44;98992.78;5093463;28;20614;-76
2023/05/15 07:50:46;;;;;;;3.17;2.10;;;;;;;19.22;85.34;98994.31;5093612;28;20202;-73
2023/05/15 07:53:15;;;;;;;2.43;1.93;;;;;;;19.52;84.47;98987.56;5093154;28;20236;-72
2023/05/15 07:55:42;;;;;;;2.27;2.07;;;;;;;19.81;85.54;98986.09;5093394;28;20234;-72
2023/05/15 07:58:09;;;;;;;2.93;1.90;;;;;;;19.90;80.14;98998.06;5093334;28;20224;-72
2023/05/15 08:00:38;;;;;;;3.43;2.17;;;;;;;19.83;79.92;99004.91;5093401;28;20228;-75
2023/05/15 08:03:04;;;;;;;2.50;1.90;;;;;;;19.66;78.89;99005.00;5093315;28;20669;-72
2023/05/15 08:05:31;;;;;;;2.73;2.03;;;;;;;19.62;80.36;99003.69;5093297;28;20485;-75
2023/05/15 08:08:00;;;;;;;4.87;2.30;;;;;;;19.62;79.74;99003.69;5093038;28;20222;-70
2023/05/15 08:10:27;;;;;;;2.30;1.70;;;;;;;19.39;80.81;99006.25;5093359;28;20199;-72
2023/05/15 08:12:54;;;;;;;3.37;2.10;;;;;;;19.48;82.96;98999.22;5093068;28;20264;-71
2023/05/15 08:15:21;;;;;;;3.20;2.10;;;;;;;19.67;80.94;98998.03;5093337;28;20208;-75
2023/05/15 08:17:49;;;;;;;2.40;1.80;;;;;;;19.75;82.75;98990.22;5093020;28;20216;-75
2023/05/15 08:20:16;;;;;;;4.40;1.90;;;;;;;20.02;80.41;99001.84;5092910;28;20588;-75
2023/05/15 08:22:43;;;;;;;3.50;2.23;;;;;;;20.50;80.93;98999.81;5092778;28;20209;-75
2023/05/15 08:25:10;;;;;;;2.93;2.30;;;;;;;20.73;79.85;98998.97;5093103;28;20714;-75
2023/05/15 08:27:37;;;;;;;2.70;2.20;;;;;;;21.09;75.44;99003.44;5092654;28;20208;-75
2023/05/15 08:30:05;;;;;;;2.73;1.87;;;;;;;21.15;74.46;99013.16;5092865;28;20200;-75
2023/05/15 08:32:31;;;;;;;3.37;2.30;;;;;;;21.55;72.47;99003.22;5092926;28;20200;-75
2023/05/15 08:35:00;;;;;;;3.03;2.30;;;;;;;21.81;70.75;99007.91;5092766;28;20232;-72
2023/05/15 08:37:27;;;;;;;2.63;2.13;;;;;;;22.02;72.21;99004.50;5092410;28;20206;-75
2023/05/15 08:39:53;;;;;;;3.70;2.13;;;;;;;22.10;71.27;99006.97;5092799;28;20225;-72
2023/05/15 08:42:24;;;;;;;3.43;1.90;;;;;;;22.39;70.36;99016.47;5092437;28;20288;-72
2023/05/15 08:44:50;;;;;;;3.00;1.88;;;;;;;22.80;68.45;99024.34;5091729;28;20218;-73
2023/05/15 08:47:19;;;;;;;4.50;2.08;;;;;;;22.91;67.12;99024.84;5092505;28;20697;-72
2023/05/15 08:49:57;;;;;;;2.25;2.00;;;;;;;22.66;64.97;99027.91;5092712;28;20218;-74
2023/05/15 08:52:26;;;;;;;2.10;1.90;;;;;;;22.83;64.44;99024.00;5092296;28;20644;-72
2023/05/15 08:54:53;;;;;;;2.42;1.80;;;;;;;23.15;64.05;99031.41;5092517;28;20237;-74
2023/05/15 08:57:20;;;;;;;2.28;1.90;;;;;;;23.00;62.98;99034.13;5092443;28;20209;-75
2023/05/15 08:59:46;;;;;;;2.92;2.03;;;;;;;22.80;64.90;99034.78;5092265;28;20218;-72
2023/05/15 09:02:13;;;;;;;4.15;2.10;;;;;;;22.85;63.84;99033.44;5092045;28;20690;-75
2023/05/15 09:04:40;;;;;;;2.55;1.80;;;;;;;22.47;63.50;99034.56;5091680;28;20218;-72
2023/05/15 09:07:07;;;;;;;2.90;1.98;;;;;;;22.07;67.56;99043.81;5092132;28;20564;-71
2023/05/15 09:09:36;;;;;;;3.22;1.92;;;;;;;22.44;64.90;99036.75;5091692;28;20218;-71
2023/05/15 09:12:04;;;;;;;2.67;2.15;;;;;;;22.93;64.58;99038.50;5091966;28;20563;-72
2023/05/15 09:14:30;;;;;;;3.03;2.10;;;;;;;23.24;65.02;99046.72;5092004;28;20237;-72
2023/05/15 09:16:58;;;;;;;2.80;2.10;;;;;;;23.09;64.52;99046.03;5091815;28;20225;-72
2023/05/15 09:19:24;;;;;;;2.42;2.00;;;;;;;23.06;62.08;99046.41;5092011;28;20304;-75
2023/05/15 09:21:51;;;;;;;3.72;2.13;;;;;;;22.78;62.63;99042.00;5091744;28;20202;-76
2023/05/15 09:24:22;;;;;;;2.83;1.92;;;;;;;22.29;62.64;99045.44;5091949;28;20249;-72
2023/05/15 09:27:02;;;;;;;5.78;2.30;;;;;;;22.34;64.26;99044.88;5091825;28;20209;-72
2023/05/15 09:29:30;;;;;;;2.35;1.70;;;;;;;22.34;65.64;99037.88;5091663;28;20264;-71
2023/05/15 09:31:57;;;;;;;2.35;2.00;;;;;;;22.30;67.42;99039.25;5092536;28;20201;-71
2023/05/15 09:34:29;;;;;;;2.38;1.85;;;;;;;22.56;65.60;99035.22;5092597;28;20270;-75
2023/05/15 09:36:56;;;;;;;3.08;2.15;;;;;;;22.85;64.77;99044.66;5091570;28;20217;-76
2023/05/15 09:39:23;;;;;;;3.25;2.17;;;;;;;22.51;68.21;99035.00;5091291;28;20676;-76
2023/05/15 09:41:52;;;;;;;3.28;2.13;;;;;;;22.37;68.40;99029.69;5091486;28;20199;-72
2023/05/15 09:44:20;;;;;;;2.50;1.90;;;;;;;22.89;67.95;99024.22;5091878;28;20225;-72
2023/05/15 09:46:47;;;;;;;3.28;2.38;;;;;;;23.55;69.32;99027.16;5092533;28;20233;-76
2023/05/15 09:49:14;;;;;;;3.70;2.05;;;;;;;24.33;63.88;99024.09;5091825;28;20253;-72
2023/05/15 09:51:41;;;;;;;4.78;2.30;;;;;;;24.55;62.50;99020.31;5091204;28;20206;-75
2023/05/15 09:54:15;;;;;;;2.83;2.00;;;;;;;24.72;60.11;99012.00;5090829;28;20241;-72
2023/05/15 09:56:43;;;;;;;4.78;2.25;;;;;;;24.59;59.19;99013.66;5090236;28;20194;-72
2023/05/15 09:59:14;;;;;;;5.75;2.05;;;;;;;24.78;60.78;99021.66;5091318;28;20585;-72
2023/05/15 10:01:43;;;;;;;2.70;2.13;;;;;;;24.72;59.19;99027.69;5090789;28;20255;-75
2023/05/15 10:04:11;;;;;;;2.63;2.00;;;;;;;24.11;57.60;99020.84;5090995;28;20875;-72
2023/05/15 10:06:39;;;;;;;5.30;2.20;;;;;;;24.44;57.29;99020.91;5090585;28;20195;-72
2023/05/15 10:09:06;;;;;;;4.78;2.88;;;;;;;24.12;60.12;99018.06;5091196;28;20225;-75
2023/05/15 10:11:35;;;;;;;3.30;2.53;;;;;;;23.76;60.58;99028.03;5090384;28;20579;-72
2023/05/15 10:14:02;;;;;;;3.72;2.05;;;;;;;23.78;61.06;99015.59;5090898;28;20238;-73
2023/05/15 10:16:33;;;;;;;4.45;2.58;;;;;;;23.49;62.09;99020.09;5090596;28;20205;-72
2023/05/15 10:19:01;;;;;;;9.40;4.20;;;;;;;23.64;62.45;99015.53;5090544;28;20229;-72
2023/05/15 10:21:30;;;;;;;5.00;2.95;;;;;;;23.41;61.50;99020.28;5091016;28;20198;-71
2023/05/15 10:24:00;;;;;;;4.18;2.28;;;;;;;23.85;62.25;99005.97;5090536;28;20229;-72
2023/05/15 10:26:35;;;;;;;3.92;2.55;;;;;;;24.04;61.95;99005.19;5090556;28;20207;-72
2023/05/15 10:29:05;;;;;;;4.15;2.30;;;;;;;24.03;62.98;99008.81;5090578;28;20273;-72
2023/05/15 10:31:34;;;;;;;2.30;2.10;;;;;;;24.15;60.21;99009.81;5090470;28;20205;-75
2023/05/15 10:34:01;;;;;;;6.90;2.00;;;;;;;24.36;58.88;99010.63;5090715;28;20603;-72
2023/05/15 10:36:29;;;;;;;2.53;2.10;;;;;;;24.04;60.04;99015.63;5090289;28;20236;-75
2023/05/15 10:38:58;;;;;;;3.08;2.20;;;;;;;23.91;60.72;99023.44;5090318;28;20222;-75
2023/05/15 10:41:26;;;;;;;5.07;2.53;;;;;;;24.00;60.97;99024.88;5090443;28;20220;-75
2023/05/15 10:43:53;;;;;;;2.35;1.83;;;;;;;23.66;60.44;99031.81;5090485;28;20483;-75
2023/05/15 10:46:21;;;;;;;2.22;2.00;;;;;;;23.65;60.08;99026.78;5090115;28;20202;-73
2023/05/15 10:48:50;;;;;;;3.38;2.03;;;;;;;23.63;60.29;99029.59;5090122;28;20354;-75
2023/05/15 10:51:19;;;;;;;2.03;1.73;;;;;;;23.52;61.66;99035.38;5090387;28;20649;-75
2023/05/15 10:53:46;;;;;;;2.95;2.00;;;;;;;23.65;61.47;99027.59;5090338;28;20237;-76
2023/05/15 10:56:15;;;;;;;4.43;2.33;;;;;;;23.41;62.76;99021.06;5089794;28;20217;-73
2023/05/15 10:58:46;;;;;;;4.28;2.25;;;;;;;23.20;64.16;99019.41;5089999;28;20222;-75
2023/05/15 11:01:26;;;;;;;3.53;2.05;;;;;;;23.33;63.74;99023.06;5090092;28;20632;-75
2023/05/15 11:04:05;;;;;;;4.07;2.22;;;;;;;22.93;63.78;99028.88;5089821;28;20228;-72
2023/05/15 11:06:32;;;;;;;2.65;1.73;;;;;;;22.75;67.63;99020.75;5089520;28;20229;-75
2023/05/15 11:09:32;;;;;;;2.55;2.05;;;;;;;22.61;67.25;99027.66;5090080;28;20221;-73
2023/05/15 11:12:00;;;;;;;3.83;2.20;;;;;;;22.69;70.39;99026.69;5089764;28;20264;-75
2023/05/15 11:14:28;;;;;;;3.35;2.10;;;;;;;22.61;73.44;99019.84;5089782;28;20256;-75
2023/05/15 11:17:00;;;;;;;2.65;1.95;;;;;;;22.75;75.96;99024.16;5089822;28;20560;-73
2023/05/15 11:19:35;;;;;;;2.17;1.92;;;;;;;22.51;77.48;99019.34;5090095;28;20693;-74
2023/05/15 11:22:15;;;;;;;4.20;1.95;;;;;;;22.41;78.42;99013.69;5089777;28;20189;-75
2023/05/15 11:24:49;;;;;;;3.08;2.15;;;;;;;22.09;82.60;99006.19;5089894;28;20222;-75
2023/05/15 11:27:18;;;;;;;3.03;1.98;;;;;;;22.03;83.48;98998.31;5090413;28;20681;-74
2023/05/15 11:30:11;;;;;;;2.83;2.20;;;;;;;21.87;83.64;98987.13;5089643;28;20214;-74
2023/05/15 11:32:45;;;;;;;3.22;2.10;;;;;;;21.75;87.98;98978.22;5089615;28;20221;-72
2023/05/15 11:35:18;;;;;;;3.10;2.20;;;;;;;21.65;91.22;98962.13;5089729;28;20234;-72